Pagrindinis puslapis
METAR-TAF:

METAR-TAF

Oro uostai :

Venas, Mikronezija

platuma: 07-28N, ilguma: 151-51E, Aukštis: 3 m

Dabartinis oras

Ataskaita buvo paskelbta 49 minutes, ne 03:51 UTC
Vėjas 5 kt nuo kintamojo kryptimis
Temperatūra 29°C
Drėgmė 84%
Slėgis 1008 hPa
Matomumas: 22.5 km
Mažai debesys ne aukštis 1300 ft, aukštai iškilę kamuoliniai debesys.
Su prošvaistėmis ne aukštis 12000 ft
Apsiniaukę ne aukštis 28000 ft

METAR: PTKK 180351Z VRB05KT 14SM FEW013TCU BKN120 OVC280 29/26 A2978 RMK TCU NW SLP086 T02860261

Laikas: 14:40 (04:40 UTC)

Prognozė

Ataskaita buvo paskelbta 4 valandos ir 56 minutes, ne 23:44 UTC
Prognozė galioja nuo 18 metu 00 UTC su 18 metu 24 UTC
Vėjas 11 kt iš Vakarų/Pietvakarių
Matomumas: 10 km
Išsisklaidę debesys ne aukštis 1600 ft
Išsisklaidę debesys ne aukštis 4000 ft
Su prošvaistėmis ne aukštis 12000 ft
Liūtis kaimynystėje

TAF: PTKK 172344Z 1800/1824 25011KT P6SM VCSH SCT016 SCT040 BKN120

Orai ataskaitas ir orų prognozės (METAR, TAF).

turimą stotys yra geltonos ir raudonos taškus žemėlapyje.

Perkelti pele per norėdami pamatyti stoties vardą.

Tada spustelėkite, norėdami matyti oro stebėjimo ir prognozės.

Norėdami pakeisti žemėlapį: spustelėkite ant žalios mygtukų su juodo kryžiaus žemyn,; žalią mygtuką su brūkšneliu, jei norite nutolinti; arba žalių rodyklių gretimoms žemėlapius.


METAR-TAF: